sensor_id;sensor_type;location;lat;lon;timestamp;pressure;altitude;pressure_sealevel;temperature;humidity
45403;BME280;47427;51.976;5.326;2023-06-22T00:00:44;101897.09;;;18.32;92.86
45403;BME280;47427;51.976;5.326;2023-06-22T00:04:05;101895.19;;;18.20;93.74
45403;BME280;47427;51.976;5.326;2023-06-22T00:07:28;101898.59;;;18.10;94.63
45403;BME280;47427;51.976;5.326;2023-06-22T00:10:50;101893.19;;;18.02;95.53
45403;BME280;47427;51.976;5.326;2023-06-22T00:14:12;101885.13;;;17.93;96.23
45403;BME280;47427;51.976;5.326;2023-06-22T00:17:35;101880.66;;;17.89;96.72
45403;BME280;47427;51.976;5.326;2023-06-22T00:20:56;101885.00;;;17.84;97.45
45403;BME280;47427;51.976;5.326;2023-06-22T00:24:21;101869.84;;;17.76;98.11
45403;BME280;47427;51.976;5.326;2023-06-22T00:27:46;101883.91;;;17.71;99.27
45403;BME280;47427;51.976;5.326;2023-06-22T00:31:08;101888.31;;;17.69;99.36
45403;BME280;47427;51.976;5.326;2023-06-22T00:34:34;101882.06;;;17.64;99.79
45403;BME280;47427;51.976;5.326;2023-06-22T00:37:59;101879.38;;;17.61;100.00
45403;BME280;47427;51.976;5.326;2023-06-22T00:41:23;101868.69;;;17.56;100.00
45403;BME280;47427;51.976;5.326;2023-06-22T00:44:46;101879.31;;;17.59;100.00
45403;BME280;47427;51.976;5.326;2023-06-22T00:48:07;101859.84;;;17.57;100.00
45403;BME280;47427;51.976;5.326;2023-06-22T00:51:31;101875.75;;;17.55;100.00
45403;BME280;47427;51.976;5.326;2023-06-22T00:54:57;101873.06;;;17.54;100.00
45403;BME280;47427;51.976;5.326;2023-06-22T00:58:22;101862.38;;;17.48;100.00
45403;BME280;47427;51.976;5.326;2023-06-22T01:01:45;101874.66;;;17.40;100.00
45403;BME280;47427;51.976;5.326;2023-06-22T01:05:09;101874.59;;;17.35;100.00
45403;BME280;47427;51.976;5.326;2023-06-22T01:08:47;101872.69;;;17.28;100.00
45403;BME280;47427;51.976;5.326;2023-06-22T01:12:11;101870.00;;;17.25;100.00
45403;BME280;47427;51.976;5.326;2023-06-22T01:15:53;101870.75;;;17.16;100.00
45403;BME280;47427;51.976;5.326;2023-06-22T01:19:49;101874.25;;;17.14;100.00
45403;BME280;47427;51.976;5.326;2023-06-22T01:27:28;101872.34;;;17.06;100.00
45403;BME280;47427;51.976;5.326;2023-06-22T01:30:53;101872.31;;;17.02;100.00
45403;BME280;47427;51.976;5.326;2023-06-22T01:34:27;101863.38;;;16.98;100.00
45403;BME280;47427;51.976;5.326;2023-06-22T01:37:55;101868.69;;;16.98;100.00
45403;BME280;47427;51.976;5.326;2023-06-22T01:41:24;101853.63;;;16.94;100.00
45403;BME280;47427;51.976;5.326;2023-06-22T01:44:47;101860.66;;;16.92;100.00
45403;BME280;47427;51.976;5.326;2023-06-22T01:48:14;101862.34;;;16.87;100.00
45403;BME280;47427;51.976;5.326;2023-06-22T01:51:37;101862.28;;;16.84;100.00
45403;BME280;47427;51.976;5.326;2023-06-22T01:55:00;101865.78;;;16.83;100.00
45403;BME280;47427;51.976;5.326;2023-06-22T01:58:26;101859.56;;;16.81;100.00
45403;BME280;47427;51.976;5.326;2023-06-22T02:02:06;101859.56;;;16.79;100.00
45403;BME280;47427;51.976;5.326;2023-06-22T02:05:35;101861.34;;;16.80;100.00
45403;BME280;47427;51.976;5.326;2023-06-22T02:09:02;101850.66;;;16.77;100.00
45403;BME280;47427;51.976;5.326;2023-06-22T02:12:30;101862.09;;;16.75;100.00
45403;BME280;47427;51.976;5.326;2023-06-22T02:15:55;101855.81;;;16.69;100.00
45403;BME280;47427;51.976;5.326;2023-06-22T02:19:41;101854.06;;;16.68;100.00
45403;BME280;47427;51.976;5.326;2023-06-22T02:23:02;101846.06;;;16.67;100.00
45403;BME280;47427;51.976;5.326;2023-06-22T02:26:25;101850.44;;;16.65;100.00
45403;BME280;47427;51.976;5.326;2023-06-22T02:29:49;101851.25;;;16.61;100.00
45403;BME280;47427;51.976;5.326;2023-06-22T02:33:11;101853.88;;;16.59;100.00
45403;BME280;47427;51.976;5.326;2023-06-22T02:36:34;101856.47;;;16.56;100.00
45403;BME280;47427;51.976;5.326;2023-06-22T02:39:58;101852.03;;;16.54;100.00
45403;BME280;47427;51.976;5.326;2023-06-22T02:43:20;101849.28;;;16.49;100.00
45403;BME280;47427;51.976;5.326;2023-06-22T02:46:43;101840.38;;;16.44;100.00
45403;BME280;47427;51.976;5.326;2023-06-22T02:50:05;101841.16;;;16.40;100.00
45403;BME280;47427;51.976;5.326;2023-06-22T02:53:28;101847.34;;;16.39;100.00
45403;BME280;47427;51.976;5.326;2023-06-22T02:56:53;101850.81;;;16.36;100.00
45403;BME280;47427;51.976;5.326;2023-06-22T03:00:18;101842.81;;;16.33;100.00
45403;BME280;47427;51.976;5.326;2023-06-22T03:03:45;101845.38;;;16.29;100.00
45403;BME280;47427;51.976;5.326;2023-06-22T03:07:11;101847.06;;;16.25;100.00
45403;BME280;47427;51.976;5.326;2023-06-22T03:10:32;101843.44;;;16.18;100.00
45403;BME280;47427;51.976;5.326;2023-06-22T03:13:56;101844.22;;;16.14;100.00
45403;BME280;47427;51.976;5.326;2023-06-22T03:17:18;101842.41;;;16.12;100.00
45403;BME280;47427;51.976;5.326;2023-06-22T03:20:43;101833.56;;;16.11;100.00
45403;BME280;47427;51.976;5.326;2023-06-22T03:24:08;101810.59;;;16.09;100.00
45403;BME280;47427;51.976;5.326;2023-06-22T03:27:50;101806.13;;;16.06;100.00
45403;BME280;47427;51.976;5.326;2023-06-22T03:31:11;101798.13;;;16.03;100.00
45403;BME280;47427;51.976;5.326;2023-06-22T03:34:36;101810.41;;;15.99;100.00
45403;BME280;47427;51.976;5.326;2023-06-22T03:38:00;101805.06;;;15.96;100.00
45403;BME280;47427;51.976;5.326;2023-06-22T03:41:41;101813.81;;;15.94;100.00
45403;BME280;47427;51.976;5.326;2023-06-22T03:45:08;101811.19;;;15.94;100.00
45403;BME280;47427;51.976;5.326;2023-06-22T03:48:32;101809.41;;;15.93;100.00
45403;BME280;47427;51.976;5.326;2023-06-22T03:51:55;101809.41;;;15.93;100.00
45403;BME280;47427;51.976;5.326;2023-06-22T03:55:17;101803.19;;;15.92;100.00
45403;BME280;47427;51.976;5.326;2023-06-22T03:58:39;101814.66;;;15.91;100.00
45403;BME280;47427;51.976;5.326;2023-06-22T04:02:05;101814.69;;;15.93;100.00
45403;BME280;47427;51.976;5.326;2023-06-22T04:05:29;101807.63;;;15.93;100.00
45403;BME280;47427;51.976;5.326;2023-06-22T04:09:15;101810.38;;;15.98;100.00
45403;BME280;47427;51.976;5.326;2023-06-22T04:12:40;101813.09;;;16.02;100.00
45403;BME280;47427;51.976;5.326;2023-06-22T04:16:03;101811.44;;;16.08;100.00
45403;BME280;47427;51.976;5.326;2023-06-22T04:19:27;101804.50;;;16.14;100.00
45403;BME280;47427;51.976;5.326;2023-06-22T04:22:48;101802.78;;;16.18;100.00
45403;BME280;47427;51.976;5.326;2023-06-22T04:26:13;101800.31;;;16.25;100.00
45403;BME280;47427;51.976;5.326;2023-06-22T04:29:39;101793.44;;;16.37;100.00
45403;BME280;47427;51.976;5.326;2023-06-22T04:33:13;101799.78;;;16.48;100.00
45403;BME280;47427;51.976;5.326;2023-06-22T04:36:39;101798.25;;;16.59;100.00
45403;BME280;47427;51.976;5.326;2023-06-22T04:40:00;101804.59;;;16.71;100.00
45403;BME280;47427;51.976;5.326;2023-06-22T04:43:23;101803.91;;;16.81;100.00
45403;BME280;47427;51.976;5.326;2023-06-22T04:46:48;101805.84;;;16.91;100.00
45403;BME280;47427;51.976;5.326;2023-06-22T04:50:15;101803.25;;;16.96;100.00
45403;BME280;47427;51.976;5.326;2023-06-22T04:53:37;101798.09;;;17.05;100.00
45403;BME280;47427;51.976;5.326;2023-06-22T04:57:06;101807.94;;;17.12;100.00
45403;BME280;47427;51.976;5.326;2023-06-22T05:00:32;101810.69;;;17.20;100.00
45403;BME280;47427;51.976;5.326;2023-06-22T05:03:58;101812.63;;;17.30;100.00
45403;BME280;47427;51.976;5.326;2023-06-22T05:07:22;101810.13;;;17.42;100.00
45403;BME280;47427;51.976;5.326;2023-06-22T05:10:47;101796.00;;;17.46;100.00
45403;BME280;47427;51.976;5.326;2023-06-22T05:14:10;101807.63;;;17.56;100.00
45403;BME280;47427;51.976;5.326;2023-06-22T05:17:32;101802.50;;;17.68;100.00
45403;BME280;47427;51.976;5.326;2023-06-22T05:20:53;101794.72;;;17.82;100.00
45403;BME280;47427;51.976;5.326;2023-06-22T05:24:18;101812.59;;;17.97;100.00
45403;BME280;47427;51.976;5.326;2023-06-22T05:27:45;101810.00;;;18.03;100.00
45403;BME280;47427;51.976;5.326;2023-06-22T05:31:10;101811.94;;;18.18;100.00
45403;BME280;47427;51.976;5.326;2023-06-22T05:34:32;101817.38;;;18.32;100.00
45403;BME280;47427;51.976;5.326;2023-06-22T05:37:57;101822.84;;;18.50;100.00
45403;BME280;47427;51.976;5.326;2023-06-22T05:41:27;101816.78;;;18.65;100.00
45403;BME280;47427;51.976;5.326;2023-06-22T05:44:53;101816.19;;;18.95;100.00
45403;BME280;47427;51.976;5.326;2023-06-22T05:48:15;101800.41;;;19.23;100.00
45403;BME280;47427;51.976;5.326;2023-06-22T05:51:37;101806.75;;;19.54;100.00
45403;BME280;47427;51.976;5.326;2023-06-22T05:55:00;101821.13;;;19.85;100.00
45403;BME280;47427;51.976;5.326;2023-06-22T05:58:30;101814.06;;;19.98;100.00
45403;BME280;47427;51.976;5.326;2023-06-22T06:01:51;101809.69;;;20.19;100.00
45403;BME280;47427;51.976;5.326;2023-06-22T06:05:14;101814.13;;;20.35;100.00
45403;BME280;47427;51.976;5.326;2023-06-22T06:08:38;101802.63;;;20.68;100.00
45403;BME280;47427;51.976;5.326;2023-06-22T06:12:00;101800.81;;;21.04;100.00
45403;BME280;47427;51.976;5.326;2023-06-22T06:15:25;101788.28;;;21.35;100.00
45403;BME280;47427;51.976;5.326;2023-06-22T06:18:46;101782.00;;;21.52;100.00
45403;BME280;47427;51.976;5.326;2023-06-22T06:22:11;101792.53;;;21.82;100.00
45403;BME280;47427;51.976;5.326;2023-06-22T06:25:52;101796.84;;;22.10;100.00
45403;BME280;47427;51.976;5.326;2023-06-22T06:29:17;101797.56;;;22.41;100.00
45403;BME280;47427;51.976;5.326;2023-06-22T06:32:43;101791.13;;;22.65;100.00
45403;BME280;47427;51.976;5.326;2023-06-22T06:36:07;101786.47;;;22.84;100.00
45403;BME280;47427;51.976;5.326;2023-06-22T06:39:30;101787.25;;;22.93;100.00
45403;BME280;47427;51.976;5.326;2023-06-22T06:42:53;101778.25;;;23.07;100.00
45403;BME280;47427;51.976;5.326;2023-06-22T06:46:15;101768.34;;;23.13;99.74
45403;BME280;47427;51.976;5.326;2023-06-22T06:49:38;101778.09;;;23.19;98.76
45403;BME280;47427;51.976;5.326;2023-06-22T06:53:01;101780.69;;;23.30;97.23
45403;BME280;47427;51.976;5.326;2023-06-22T06:56:22;101760.03;;;23.38;97.66
45403;BME280;47427;51.976;5.326;2023-06-22T06:59:46;101769.69;;;23.51;97.18
45403;BME280;47427;51.976;5.326;2023-06-22T07:03:11;101775.78;;;23.64;95.74
45403;BME280;47427;51.976;5.326;2023-06-22T07:06:35;101774.72;;;23.77;95.71
45403;BME280;47427;51.976;5.326;2023-06-22T07:09:59;101784.22;;;24.01;94.83
45403;BME280;47427;51.976;5.326;2023-06-22T07:13:20;101781.53;;;24.01;92.31
45403;BME280;47427;51.976;5.326;2023-06-22T07:16:44;101781.06;;;24.32;91.99
45403;BME280;47427;51.976;5.326;2023-06-22T07:20:09;101775.13;;;24.68;91.19
45403;BME280;47427;51.976;5.326;2023-06-22T07:23:34;101762.97;;;24.96;88.72
45403;BME280;47427;51.976;5.326;2023-06-22T07:26:59;101762.97;;;25.43;87.22
45403;BME280;47427;51.976;5.326;2023-06-22T07:30:22;101765.09;;;25.69;85.44
45403;BME280;47427;51.976;5.326;2023-06-22T07:33:44;101761.53;;;26.09;83.22
45403;BME280;47427;51.976;5.326;2023-06-22T07:37:09;101755.75;;;25.87;80.79
45403;BME280;47427;51.976;5.326;2023-06-22T07:40:32;101756.06;;;26.13;82.00
45403;BME280;47427;51.976;5.326;2023-06-22T07:43:55;101754.47;;;26.41;79.33
45403;BME280;47427;51.976;5.326;2023-06-22T07:47:20;101747.13;;;26.47;77.23
45403;BME280;47427;51.976;5.326;2023-06-22T07:50:49;101739.88;;;26.85;76.72
45403;BME280;47427;51.976;5.326;2023-06-22T07:54:13;101766.91;;;27.76;59.67
45403;BME280;47427;51.976;5.326;2023-06-22T07:57:48;101775.78;;;29.39;52.76
45403;BME280;47427;51.976;5.326;2023-06-22T08:01:10;101775.50;;;29.94;51.90
45403;BME280;47427;51.976;5.326;2023-06-22T08:04:34;101772.81;;;31.01;49.62
45403;BME280;47427;51.976;5.326;2023-06-22T08:07:56;101759.31;;;31.20;49.28
45403;BME280;47427;51.976;5.326;2023-06-22T08:11:19;101760.56;;;31.52;47.46
45403;BME280;47427;51.976;5.326;2023-06-22T08:14:44;101771.78;;;31.82;46.50
45403;BME280;47427;51.976;5.326;2023-06-22T08:18:07;101787.34;;;32.53;43.40
45403;BME280;47427;51.976;5.326;2023-06-22T08:21:32;101789.72;;;33.62;41.76
45403;BME280;47427;51.976;5.326;2023-06-22T08:24:55;101793.34;;;34.26;40.15
45403;BME280;47427;51.976;5.326;2023-06-22T08:28:17;101820.41;;;35.64;36.98
45403;BME280;47427;51.976;5.326;2023-06-22T08:31:40;101836.66;;;35.80;36.30
45403;BME280;47427;51.976;5.326;2023-06-22T08:35:01;101829.31;;;34.79;36.24
45403;BME280;47427;51.976;5.326;2023-06-22T08:38:24;101791.94;;;33.71;38.12
45403;BME280;47427;51.976;5.326;2023-06-22T08:41:50;101764.66;;;33.22;39.52
45403;BME280;47427;51.976;5.326;2023-06-22T08:45:12;101748.66;;;32.65;40.31
45403;BME280;47427;51.976;5.326;2023-06-22T08:48:35;101727.09;;;32.26;42.30
45403;BME280;47427;51.976;5.326;2023-06-22T08:52:00;101714.28;;;31.74;41.78
45403;BME280;47427;51.976;5.326;2023-06-22T08:55:22;101708.16;;;31.31;42.42
45403;BME280;47427;51.976;5.326;2023-06-22T08:58:48;101691.91;;;30.71;43.88
45403;BME280;47427;51.976;5.326;2023-06-22T09:02:10;101680.19;;;30.30;44.98
45403;BME280;47427;51.976;5.326;2023-06-22T09:05:34;101681.63;;;29.96;45.06
45403;BME280;47427;51.976;5.326;2023-06-22T09:08:57;101682.25;;;29.80;45.50
45403;BME280;47427;51.976;5.326;2023-06-22T09:12:21;101675.97;;;30.00;45.99
45403;BME280;47427;51.976;5.326;2023-06-22T09:15:48;101666.47;;;29.46;46.37
45403;BME280;47427;51.976;5.326;2023-06-22T09:19:11;101669.72;;;29.09;46.94
45403;BME280;47427;51.976;5.326;2023-06-22T09:22:32;101657.63;;;28.94;48.20
45403;BME280;47427;51.976;5.326;2023-06-22T09:25:55;101672.53;;;28.81;47.50
45403;BME280;47427;51.976;5.326;2023-06-22T09:29:17;101680.47;;;28.85;46.22
45403;BME280;47427;51.976;5.326;2023-06-22T09:32:39;101688.13;;;28.98;46.12
45403;BME280;47427;51.976;5.326;2023-06-22T09:36:00;101688.16;;;29.21;45.59
45403;BME280;47427;51.976;5.326;2023-06-22T09:39:22;101682.72;;;29.23;46.87
45403;BME280;47427;51.976;5.326;2023-06-22T09:42:45;101688.41;;;29.15;45.80
45403;BME280;47427;51.976;5.326;2023-06-22T09:46:08;101664.44;;;28.81;47.17
45403;BME280;47427;51.976;5.326;2023-06-22T09:49:30;101641.94;;;28.57;47.33
45403;BME280;47427;51.976;5.326;2023-06-22T09:52:54;101633.53;;;28.39;47.44
45403;BME280;47427;51.976;5.326;2023-06-22T09:56:17;101661.16;;;27.94;47.02
45403;BME280;47427;51.976;5.326;2023-06-22T09:59:39;101621.84;;;27.59;49.94
45403;BME280;47427;51.976;5.326;2023-06-22T10:03:05;101623.19;;;27.44;49.66
45403;BME280;47427;51.976;5.326;2023-06-22T10:06:30;101630.06;;;27.26;49.92
45403;BME280;47427;51.976;5.326;2023-06-22T10:09:53;101612.97;;;27.27;51.15
45403;BME280;47427;51.976;5.326;2023-06-22T10:13:17;101624.81;;;27.21;50.59
45403;BME280;47427;51.976;5.326;2023-06-22T10:16:40;101627.63;;;27.17;50.07
45403;BME280;47427;51.976;5.326;2023-06-22T10:20:08;101641.25;;;27.12;49.92
45403;BME280;47427;51.976;5.326;2023-06-22T10:23:35;101636.72;;;27.13;51.62
45403;BME280;47427;51.976;5.326;2023-06-22T10:26:57;101634.81;;;27.18;51.26
45403;BME280;47427;51.976;5.326;2023-06-22T10:30:20;101639.50;;;27.10;51.05
45403;BME280;47427;51.976;5.326;2023-06-22T10:33:45;101641.09;;;27.17;50.25
45403;BME280;47427;51.976;5.326;2023-06-22T10:37:06;101655.44;;;27.17;49.57
45403;BME280;47427;51.976;5.326;2023-06-22T10:40:30;101640.25;;;27.44;51.47
45403;BME280;47427;51.976;5.326;2023-06-22T10:43:51;101656.00;;;27.58;49.50
45403;BME280;47427;51.976;5.326;2023-06-22T10:47:18;101659.81;;;27.51;48.39
45403;BME280;47427;51.976;5.326;2023-06-22T10:50:44;101664.56;;;27.43;48.68
45403;BME280;47427;51.976;5.326;2023-06-22T10:54:06;101654.88;;;27.37;49.63
45403;BME280;47427;51.976;5.326;2023-06-22T10:57:28;101648.06;;;27.24;50.11
45403;BME280;47427;51.976;5.326;2023-06-22T11:00:51;101644.91;;;27.39;49.91
45403;BME280;47427;51.976;5.326;2023-06-22T11:04:14;101649.75;;;27.28;49.70
45403;BME280;47427;51.976;5.326;2023-06-22T11:07:41;101645.31;;;27.27;49.40
45403;BME280;47427;51.976;5.326;2023-06-22T11:11:04;101635.28;;;27.32;50.09
45403;BME280;47427;51.976;5.326;2023-06-22T11:14:27;101613.72;;;27.32;51.51
45403;BME280;47427;51.976;5.326;2023-06-22T11:17:49;101623.53;;;27.03;50.91
45403;BME280;47427;51.976;5.326;2023-06-22T11:21:11;101615.13;;;26.85;51.71
45403;BME280;47427;51.976;5.326;2023-06-22T11:24:34;101623.94;;;26.90;51.21
45403;BME280;47427;51.976;5.326;2023-06-22T11:27:57;101619.31;;;26.95;51.53
45403;BME280;47427;51.976;5.326;2023-06-22T11:31:19;101623.94;;;27.21;51.01
45403;BME280;47427;51.976;5.326;2023-06-22T11:34:42;101636.66;;;27.45;49.83
45403;BME280;47427;51.976;5.326;2023-06-22T11:38:05;101616.88;;;27.73;51.76
45403;BME280;47427;51.976;5.326;2023-06-22T11:41:27;101617.53;;;27.81;50.84
45403;BME280;47427;51.976;5.326;2023-06-22T11:44:50;101625.94;;;27.99;49.78
45403;BME280;47427;51.976;5.326;2023-06-22T11:48:12;101621.50;;;28.23;49.02
45403;BME280;47427;51.976;5.326;2023-06-22T11:51:53;101611.38;;;28.03;50.38
45403;BME280;47427;51.976;5.326;2023-06-22T11:55:15;101608.31;;;27.88;51.12
45403;BME280;47427;51.976;5.326;2023-06-22T11:58:39;101607.81;;;27.76;50.99
45403;BME280;47427;51.976;5.326;2023-06-22T12:02:02;101603.84;;;27.59;51.72
45403;BME280;47427;51.976;5.326;2023-06-22T12:05:25;101591.41;;;27.27;53.22
45403;BME280;47427;51.976;5.326;2023-06-22T12:08:48;101572.53;;;26.97;55.20
45403;BME280;47427;51.976;5.326;2023-06-22T12:12:10;101570.56;;;26.74;56.73
45403;BME280;47427;51.976;5.326;2023-06-22T12:15:32;101569.00;;;26.66;59.55
45403;BME280;47427;51.976;5.326;2023-06-22T12:18:55;101584.91;;;26.42;59.07
45403;BME280;47427;51.976;5.326;2023-06-22T12:22:21;101585.31;;;26.27;61.57
45403;BME280;47427;51.976;5.326;2023-06-22T12:25:45;101589.59;;;26.01;58.42
45403;BME280;47427;51.976;5.326;2023-06-22T12:29:10;101584.31;;;25.98;58.65
45403;BME280;47427;51.976;5.326;2023-06-22T12:32:32;101568.22;;;25.95;61.53
45403;BME280;47427;51.976;5.326;2023-06-22T12:35:57;101573.81;;;25.87;60.66
45403;BME280;47427;51.976;5.326;2023-06-22T12:39:21;101586.94;;;25.62;61.46
45403;BME280;47427;51.976;5.326;2023-06-22T12:42:44;101591.16;;;25.37;62.03
45403;BME280;47427;51.976;5.326;2023-06-22T12:46:26;101580.09;;;25.10;63.23
45403;BME280;47427;51.976;5.326;2023-06-22T12:49:48;101586.00;;;24.85;64.50
45403;BME280;47427;51.976;5.326;2023-06-22T12:53:14;101582.88;;;24.65;65.50
45403;BME280;47427;51.976;5.326;2023-06-22T12:56:38;101575.25;;;24.40;67.97
45403;BME280;47427;51.976;5.326;2023-06-22T12:59:59;101571.06;;;24.26;70.16
45403;BME280;47427;51.976;5.326;2023-06-22T13:03:26;101556.06;;;24.17;73.11
45403;BME280;47427;51.976;5.326;2023-06-22T13:06:50;101559.41;;;24.28;73.74
45403;BME280;47427;51.976;5.326;2023-06-22T13:10:12;101560.41;;;24.22;74.97
45403;BME280;47427;51.976;5.326;2023-06-22T13:13:36;101565.69;;;24.27;75.39
45403;BME280;47427;51.976;5.326;2023-06-22T13:16:57;101571.22;;;24.19;75.31
45403;BME280;47427;51.976;5.326;2023-06-22T13:20:20;101569.47;;;24.15;78.08
45403;BME280;47427;51.976;5.326;2023-06-22T13:23:42;101569.91;;;23.94;77.79
45403;BME280;47427;51.976;5.326;2023-06-22T13:27:04;101569.53;;;23.61;77.83
45403;BME280;47427;51.976;5.326;2023-06-22T13:30:27;101571.50;;;23.50;79.34
45403;BME280;47427;51.976;5.326;2023-06-22T13:33:50;101571.19;;;23.68;79.79
45403;BME280;47427;51.976;5.326;2023-06-22T13:37:14;101558.25;;;23.95;80.71
45403;BME280;47427;51.976;5.326;2023-06-22T13:40:38;101559.66;;;24.16;80.09
45403;BME280;47427;51.976;5.326;2023-06-22T13:44:02;101557.28;;;24.47;79.68
45403;BME280;47427;51.976;5.326;2023-06-22T13:47:26;101561.13;;;24.79;78.02
45403;BME280;47427;51.976;5.326;2023-06-22T13:50:49;101562.38;;;25.01;77.19
45403;BME280;47427;51.976;5.326;2023-06-22T13:54:11;101551.00;;;24.92;77.69
45403;BME280;47427;51.976;5.326;2023-06-22T13:57:33;101536.91;;;24.37;78.74
45403;BME280;47427;51.976;5.326;2023-06-22T14:00:55;101538.81;;;24.30;80.86
45403;BME280;47427;51.976;5.326;2023-06-22T14:04:17;101545.91;;;24.34;81.61
45403;BME280;47427;51.976;5.326;2023-06-22T14:07:39;101535.84;;;24.46;82.56
45403;BME280;47427;51.976;5.326;2023-06-22T14:11:04;101532.03;;;24.59;80.83
45403;BME280;47427;51.976;5.326;2023-06-22T14:14:27;101527.38;;;24.65;81.69
45403;BME280;47427;51.976;5.326;2023-06-22T14:17:50;101515.84;;;24.62;81.00
45403;BME280;47427;51.976;5.326;2023-06-22T14:21:12;101520.53;;;24.51;81.60
45403;BME280;47427;51.976;5.326;2023-06-22T14:24:33;101526.31;;;24.29;83.10
45403;BME280;47427;51.976;5.326;2023-06-22T14:27:57;101533.78;;;24.13;85.26
45403;BME280;47427;51.976;5.326;2023-06-22T14:31:19;101522.50;;;23.96;85.17
45403;BME280;47427;51.976;5.326;2023-06-22T14:34:43;101519.97;;;23.88;86.39
45403;BME280;47427;51.976;5.326;2023-06-22T14:38:07;101528.09;;;23.84;86.43
45403;BME280;47427;51.976;5.326;2023-06-22T14:41:30;101519.25;;;23.78;87.31
45403;BME280;47427;51.976;5.326;2023-06-22T14:44:53;101521.06;;;23.75;87.84
45403;BME280;47427;51.976;5.326;2023-06-22T14:48:15;101518.59;;;23.63;88.57
45403;BME280;47427;51.976;5.326;2023-06-22T14:51:38;101526.19;;;23.36;89.61
45403;BME280;47427;51.976;5.326;2023-06-22T14:55:01;101528.03;;;23.32;90.76
45403;BME280;47427;51.976;5.326;2023-06-22T14:58:22;101518.31;;;23.25;91.43
45403;BME280;47427;51.976;5.326;2023-06-22T15:01:45;101518.50;;;23.14;92.80
45403;BME280;47427;51.976;5.326;2023-06-22T15:05:09;101522.06;;;23.13;93.52
45403;BME280;47427;51.976;5.326;2023-06-22T15:08:30;101513.09;;;23.16;95.17
45403;BME280;47427;51.976;5.326;2023-06-22T15:11:53;101512.16;;;23.19;95.60
45403;BME280;47427;51.976;5.326;2023-06-22T15:15:21;101497.09;;;23.13;96.91
45403;BME280;47427;51.976;5.326;2023-06-22T15:18:43;101496.31;;;23.05;98.33
45403;BME280;47427;51.976;5.326;2023-06-22T15:22:07;101484.09;;;22.85;100.00
45403;BME280;47427;51.976;5.326;2023-06-22T15:25:28;101489.81;;;22.59;100.00
45403;BME280;47427;51.976;5.326;2023-06-22T15:28:51;101490.19;;;22.28;100.00
45403;BME280;47427;51.976;5.326;2023-06-22T15:32:14;101492.88;;;22.25;100.00
45403;BME280;47427;51.976;5.326;2023-06-22T15:35:35;101490.31;;;22.15;100.00
45403;BME280;47427;51.976;5.326;2023-06-22T15:38:58;101488.72;;;21.98;100.00
45403;BME280;47427;51.976;5.326;2023-06-22T15:42:21;101492.44;;;21.83;100.00
45403;BME280;47427;51.976;5.326;2023-06-22T15:45:43;101490.84;;;21.66;100.00
45403;BME280;47427;51.976;5.326;2023-06-22T15:49:06;101491.81;;;21.54;100.00
45403;BME280;47427;51.976;5.326;2023-06-22T15:52:27;101491.84;;;21.52;100.00
45403;BME280;47427;51.976;5.326;2023-06-22T15:55:53;101496.34;;;21.44;100.00
45403;BME280;47427;51.976;5.326;2023-06-22T15:59:16;101488.44;;;21.29;100.00
45403;BME280;47427;51.976;5.326;2023-06-22T16:02:38;101483.13;;;21.24;100.00
45403;BME280;47427;51.976;5.326;2023-06-22T16:06:04;101471.59;;;21.22;100.00
45403;BME280;47427;51.976;5.326;2023-06-22T16:09:26;101469.78;;;21.26;100.00
45403;BME280;47427;51.976;5.326;2023-06-22T16:12:48;101474.22;;;21.30;100.00
45403;BME280;47427;51.976;5.326;2023-06-22T16:16:12;101474.19;;;21.33;100.00
45403;BME280;47427;51.976;5.326;2023-06-22T16:19:33;101474.19;;;21.31;100.00
45403;BME280;47427;51.976;5.326;2023-06-22T16:22:57;101475.97;;;21.32;100.00
45403;BME280;47427;51.976;5.326;2023-06-22T16:26:19;101480.44;;;21.30;100.00
45403;BME280;47427;51.976;5.326;2023-06-22T16:29:41;101478.59;;;21.34;100.00
45403;BME280;47427;51.976;5.326;2023-06-22T16:33:04;101476.91;;;21.25;100.00
45403;BME280;47427;51.976;5.326;2023-06-22T16:36:27;101479.66;;;21.13;100.00
45403;BME280;47427;51.976;5.326;2023-06-22T16:39:51;101481.50;;;21.08;100.00
45403;BME280;47427;51.976;5.326;2023-06-22T16:43:13;101489.41;;;21.18;100.00
45403;BME280;47427;51.976;5.326;2023-06-22T16:46:38;101485.84;;;21.23;100.00
45403;BME280;47427;51.976;5.326;2023-06-22T16:50:01;101490.19;;;21.31;100.00
45403;BME280;47427;51.976;5.326;2023-06-22T16:53:26;101491.97;;;21.34;100.00
45403;BME280;47427;51.976;5.326;2023-06-22T16:56:52;101492.88;;;21.31;100.00
45403;BME280;47427;51.976;5.326;2023-06-22T17:00:15;101500.06;;;21.23;100.00
45403;BME280;47427;51.976;5.326;2023-06-22T17:03:44;101504.56;;;21.15;100.00
45403;BME280;47427;51.976;5.326;2023-06-22T17:07:13;101500.13;;;21.17;100.00
45403;BME280;47427;51.976;5.326;2023-06-22T17:10:37;101504.59;;;21.10;100.00
45403;BME280;47427;51.976;5.326;2023-06-22T17:14:00;101517.97;;;21.06;100.00
45403;BME280;47427;51.976;5.326;2023-06-22T17:17:22;101530.47;;;20.97;100.00
45403;BME280;47427;51.976;5.326;2023-06-22T17:20:46;101536.72;;;20.93;100.00
45403;BME280;47427;51.976;5.326;2023-06-22T17:24:10;101535.88;;;20.87;100.00
45403;BME280;47427;51.976;5.326;2023-06-22T17:27:34;101532.31;;;20.85;100.00
45403;BME280;47427;51.976;5.326;2023-06-22T17:31:09;101532.31;;;20.83;100.00
45403;BME280;47427;51.976;5.326;2023-06-22T17:34:32;101535.94;;;20.73;100.00
45403;BME280;47427;51.976;5.326;2023-06-22T17:37:57;101526.16;;;20.70;100.00
45403;BME280;47427;51.976;5.326;2023-06-22T17:41:31;101524.38;;;20.71;100.00
45403;BME280;47427;51.976;5.326;2023-06-22T17:45:00;101519.94;;;20.70;100.00